Latest Weather Observations for Newcastle Nobbys

IDN60801

Issued at 4:53 pm EDT Tuesday 19 January 2021 (issued every 10 minutes, with the page automatically refreshed every 10 minutes)

About weather observations | Map of weather stations | Latest weather observations for NSW | Other Formats
Station Details ID: 061055 Name: NEWCASTLE NOBBYS SIGNAL STATION AWS Lat: -32.92 Lon: 151.80 Height: 33.0 m
Data from the previous 72 hours. | See also: Recent months at Newcastle Nobbys
Date/Time
EDT
Temp
°C
App
Temp
°C
Dew
Point
°C
Rel
Hum
%
Delta-T
°C
Wind Press
QNH
hPa
Press
MSL
hPa
Rain since
9am
mm
Dir  Spd
km/h
Gust
km/h
Spd
kts
Gust
kts
19/04:30pm 21.4 17.4 18.4 83 1.9 S 37 43 20 23 - - 0.0
19/04:00pm 21.4 17.4 18.4 83 1.9 S 37 43 20 23 - - 0.0
19/03:30pm 21.9 18.5 19.1 84 1.8 S 35 41 19 22 - - 0.0
19/03:00pm 21.9 18.3 18.5 81 2.1 S 35 43 19 23 - - 0.0
19/02:30pm 21.8 18.4 19.0 84 1.8 S 35 41 19 22 - - 0.0
19/02:00pm 21.7 18.2 18.7 83 1.9 S 35 43 19 23 - - 0.0
19/01:30pm 21.7 17.9 18.9 84 1.8 S 37 46 20 25 - - 0.0
19/01:00pm 21.8 18.6 20.3 91 1.0 S 37 44 20 24 - - 0.0
19/12:30pm 22.3 18.9 20.6 90 1.1 S 39 48 21 26 - - 0.0
19/12:00pm 21.8 20.7 21.8 100 0.0 SSE 30 37 16 20 - - 0.0
19/11:30am 22.2 20.8 22.2 100 0.0 SE 33 39 18 21 - - 0.0
19/11:00am 21.8 19.8 21.8 100 0.0 SSE 35 41 19 22 - - 0.0
19/10:30am 23.4 24.2 23.2 99 0.1 SSE 24 28 13 15 - - 0.0
19/10:00am 22.5 21.2 22.5 100 0.0 SSE 33 41 18 22 - - 0.0
19/09:30am 22.7 22.5 22.7 100 0.0 S 28 32 15 17 - - 0.0
19/09:00am 22.3 23.0 22.3 100 0.0 SSW 22 30 12 16 - - 0.2
19/08:30am 23.1 23.5 23.1 100 0.0 S 26 33 14 18 - - 0.0
19/08:00am 23.0 24.5 23.0 100 0.0 SW 20 30 11 16 - - 0.0
19/07:30am 22.8 25.1 22.8 100 0.0 WSW 15 24 8 13 - - 0.0
19/07:00am 22.1 24.0 22.1 100 0.0 WSW 15 22 8 12 - - 0.0
19/06:30am 21.7 23.8 21.7 100 0.0 SW 13 20 7 11 - - 0.0
19/06:00am 21.8 22.6 21.8 100 0.0 SW 20 33 11 18 - - 0.0
19/05:30am 22.0 23.5 21.2 95 0.5 SW 15 28 8 15 - - 0.0
19/05:00am 22.2 24.4 21.2 94 0.7 SSW 11 17 6 9 - - 0.0
19/04:30am 22.2 24.9 21.4 95 0.5 SW 9 13 5 7 - - 0.0
19/04:00am 21.9 25.7 20.9 94 0.7 WNW 2 4 1 2 - - 0.0
19/03:30am 22.0 25.9 20.3 90 1.1 CALM 0 2 0 1 - - 0.0
19/03:00am 22.0 25.7 19.9 88 1.3 CALM 0 0 0 0 - - 0.0
19/02:30am 21.6 23.0 20.4 93 0.8 W 13 17 7 9 - - 0.0
19/02:00am 21.8 23.5 21.0 95 0.5 NW 13 15 7 8 - - 0.0
19/01:30am 21.7 23.3 21.5 99 0.1 NNW 15 19 8 10 - - 0.0
19/01:00am 21.7 24.6 21.7 100 0.0 N 9 11 5 6 - - 0.0
19/12:30am 22.1 25.6 21.9 99 0.1 N 6 7 3 4 - - 0.0
19/12:00am 22.4 24.8 21.6 95 0.5 N 11 13 6 7 - - 0.0
 
Date/Time
EDT
Temp
°C
App
Temp
°C
Dew
Point
°C
Rel
Hum
%
Delta-T
°C
Wind Press
QNH
hPa
Press
MSL
hPa
Rain since
9am
mm
Dir  Spd
km/h
Gust
km/h
Spd
kts
Gust
kts
18/11:30pm 22.6 26.3 22.3 98 0.2 N 6 9 3 5 - - 0.0
18/11:00pm 22.7 26.9 22.4 98 0.2 N 4 7 2 4 - - 0.0
18/10:30pm 23.0 26.6 23.0 100 0.0 N 9 13 5 7 - - 0.0
18/10:00pm 23.2 26.9 23.2 100 0.0 NE 9 13 5 7 - - 0.0
18/09:30pm 22.9 25.6 22.9 100 0.0 ENE 13 17 7 9 - - 0.0
18/09:00pm 22.8 25.9 22.8 100 0.0 ENE 11 15 6 8 - - 0.0
18/08:30pm 23.3 26.3 23.3 100 0.0 ENE 13 19 7 10 - - 0.0
18/08:00pm 23.0 24.7 23.0 100 0.0 ENE 19 24 10 13 - - 0.0
18/07:30pm 23.4 24.3 22.7 96 0.5 ENE 22 28 12 15 - - 0.0
18/07:00pm 23.4 23.3 22.2 93 0.8 ENE 26 32 14 17 - - 0.0
18/06:30pm 23.6 24.4 21.7 89 1.3 E 20 28 11 15 - - 0.0
18/06:00pm 23.4 23.6 22.0 92 0.9 ENE 24 30 13 16 - - 0.0
18/05:30pm 23.5 23.7 22.1 92 0.9 ENE 24 32 13 17 - - 0.0
18/05:00pm 23.7 24.5 21.8 89 1.3 ENE 20 28 11 15 - - 0.0
18/04:30pm 23.8 24.1 21.5 87 1.5 E 22 28 12 15 - - 0.0
18/04:00pm 23.8 24.0 21.3 86 1.6 E 22 28 12 15 - - 0.0
18/03:30pm 23.4 22.9 20.7 85 1.8 E 24 28 13 15 - - 0.0
18/03:00pm 23.6 23.8 20.5 83 2.0 E 20 24 11 13 - - 0.0
18/02:30pm 23.9 24.3 20.6 82 2.2 E 19 20 10 11 - - 0.0
18/02:00pm 24.9 25.8 20.8 78 2.7 E 17 19 9 10 - - 0.0
18/01:30pm 24.2 24.8 20.3 79 2.5 ESE 17 19 9 10 - - 0.0
18/01:00pm 24.2 24.6 19.9 77 2.8 E 17 19 9 10 - - 0.0
18/12:30pm 25.7 27.7 20.0 71 3.7 ENE 9 15 5 8 - - 0.0
18/12:00pm 25.5 28.1 20.5 74 3.3 NE 7 9 4 5 - - 0.0
18/11:30am 24.6 26.6 19.9 75 3.0 N 9 11 5 6 - - 0.0
18/11:00am 23.2 23.9 18.9 77 2.7 N 13 17 7 9 - - 0.0
18/10:30am 23.5 25.1 19.2 77 2.7 NNW 9 13 5 7 - - 0.0
18/10:00am 22.4 23.3 18.4 78 2.5 NNW 11 15 6 8 - - 0.0
18/09:30am 22.4 24.3 19.0 81 2.2 NW 7 11 4 6 - - 0.0
18/09:00am 21.9 23.7 18.7 82 2.0 NW 7 9 4 5 - - 0.0
18/08:30am 21.2 22.8 18.2 83 1.9 NW 7 9 4 5 - - 0.0
18/08:00am 20.6 22.7 18.9 90 1.1 NNW 6 6 3 3 - - 0.0
18/07:30am 19.6 21.1 18.1 91 0.9 NNW 7 9 4 5 - - 0.0
18/07:00am 20.5 23.1 19.2 92 0.8 N 4 7 2 4 - - 0.0
18/06:30am 20.6 24.1 19.6 94 0.6 CALM 0 2 0 1 - - 0.0
18/06:00am 20.4 23.8 19.4 94 0.6 CALM 0 0 0 0 - - 0.0
18/05:30am 21.1 24.6 21.1 100 0.0 ENE 4 6 2 3 - - 0.0
18/05:00am 21.1 23.6 20.3 95 0.5 E 7 9 4 5 - - 0.0
18/04:30am 21.3 23.2 20.6 96 0.5 E 11 13 6 7 - - 0.0
18/04:00am 21.3 22.7 20.3 94 0.6 E 13 15 7 8 - - 0.0
18/03:30am 21.5 23.3 20.3 93 0.8 E 11 15 6 8 - - 0.0
18/03:00am 21.6 22.6 20.2 92 0.9 ESE 15 17 8 9 - - 0.0
18/02:30am 21.7 22.3 20.3 92 0.9 ESE 17 19 9 10 - - 0.0
18/02:00am 21.6 22.2 20.2 92 0.9 ESE 17 19 9 10 - - 0.0
18/01:30am 21.6 22.2 20.2 92 0.9 ESE 17 19 9 10 - - 0.0
18/01:00am 21.7 22.7 20.2 91 1.0 ESE 15 17 8 9 - - 0.0
18/12:30am 21.6 21.9 19.5 88 1.3 ESE 17 20 9 11 - - 0.0
18/12:00am 21.7 22.3 20.2 91 1.0 ESE 17 20 9 11 - - 0.0
 
Date/Time
EDT
Temp
°C
App
Temp
°C
Dew
Point
°C
Rel
Hum
%
Delta-T
°C
Wind Press
QNH
hPa
Press
MSL
hPa
Rain since
9am
mm
Dir  Spd
km/h
Gust
km/h
Spd
kts
Gust
kts
17/11:30pm 21.7 22.6 20.0 90 1.1 ESE 15 19 8 10 - - 0.0
17/11:00pm 21.7 23.4 19.3 86 1.5 ESE 9 13 5 7 - - 0.0
17/10:30pm 21.4 22.8 17.4 78 2.5 E 6 7 3 4 - - 0.0
17/10:00pm 21.6 23.8 17.4 77 2.6 NE 2 6 1 3 - - 0.0
17/09:30pm 21.8 22.9 17.0 74 2.9 NE 7 9 4 5 - - 0.0
17/09:00pm 21.9 23.1 17.3 75 2.8 NE 7 11 4 6 - - 0.0
17/08:30pm 21.9 22.1 16.8 73 3.1 NE 11 15 6 8 - - 0.0
17/08:00pm 21.8 21.7 17.0 74 2.9 NE 13 17 7 9 - - 0.0
17/07:30pm 22.1 22.3 17.7 76 2.7 E 13 15 7 8 - - 0.0
17/07:00pm 22.3 22.7 19.1 82 2.0 ESE 15 19 8 10 - - 0.0
17/06:30pm 22.6 24.1 19.8 84 1.8 SE 11 15 6 8 - - 0.0
17/06:00pm 22.3 21.6 18.7 80 2.3 SE 20 30 11 16 - - 0.0
17/05:30pm 23.1 23.4 19.5 80 2.3 SSE 17 20 9 11 - - 0.0
17/05:00pm 23.3 24.4 18.8 76 2.9 SE 11 13 6 7 - - 0.0
17/04:30pm 23.3 23.5 18.6 75 3.0 SSE 15 17 8 9 - - 0.0
17/04:00pm 23.1 22.0 17.3 70 3.6 SSE 19 20 10 11 - - 0.0
17/03:30pm 22.7 20.3 15.3 63 4.4 S 22 24 12 13 - - 0.0
17/03:00pm 22.9 19.8 15.7 64 4.3 SSE 26 30 14 16 - - 0.0
17/02:30pm 22.5 19.0 15.4 64 4.2 S 28 32 15 17 - - 0.0
17/02:00pm 22.3 18.7 16.3 69 3.6 S 30 33 16 18 - - 0.0
17/01:30pm 22.1 17.9 15.7 67 3.8 S 32 37 17 20 - - 0.0
17/01:00pm 22.1 17.4 14.2 61 4.6 S 32 35 17 19 - - 0.0
17/12:30pm 22.5 18.4 14.9 62 4.5 S 30 35 16 19 - - 0.0
17/12:00pm 22.3 18.1 14.7 62 4.5 S 30 35 16 19 - - 0.0
17/11:30am 22.2 18.3 14.3 61 4.6 S 28 32 15 17 - - 0.0
17/11:00am 22.1 18.3 13.7 59 4.9 S 26 30 14 16 - - 0.0
17/10:30am 22.1 18.5 12.9 56 5.3 S 24 26 13 14 - - 0.0
17/10:00am 22.4 18.9 12.1 52 5.8 S 22 26 12 14 - - 0.0
17/09:30am 22.8 21.0 13.3 55 5.5 SSW 15 19 8 10 - - 0.0
17/09:00am 22.5 21.0 13.0 55 5.5 SW 13 20 7 11 - - 0.0
17/08:30am 20.4 21.1 15.6 74 2.9 N 6 11 3 6 - - 0.0
17/08:00am 18.9 19.1 14.8 77 2.4 N 7 11 4 6 - - 0.0
17/07:30am 17.9 17.9 12.4 70 3.1 W 4 6 2 3 - - 0.0
17/07:00am 16.6 16.5 13.3 81 1.9 N 6 7 3 4 - - 0.0
17/06:30am 16.3 16.2 14.0 86 1.3 N 7 9 4 5 - - 0.0
17/06:00am 16.3 15.7 13.6 84 1.5 WNW 9 11 5 6 - - 0.0
17/05:30am 15.9 15.3 13.4 85 1.4 WNW 9 11 5 6 - - 0.0
17/05:00am 15.8 15.2 13.5 86 1.3 WNW 9 11 5 6 - - 0.0
17/04:30am 16.3 16.0 14.3 88 1.1 NW 9 13 5 7 - - 0.0
17/04:00am 16.9 16.6 14.5 86 1.4 NW 9 13 5 7 - - 0.0
17/03:30am 17.8 17.9 14.5 81 1.9 NNW 7 9 4 5 - - 0.0
17/03:00am 18.3 18.2 13.8 75 2.6 NNW 7 11 4 6 - - 0.0
17/02:30am 19.2 18.6 14.5 74 2.7 NNW 11 15 6 8 - - 0.0
17/02:00am 20.1 19.7 14.2 69 3.4 NNE 9 13 5 7 - - 0.0
17/01:30am 20.2 20.5 15.0 72 3.1 NE 7 9 4 5 - - 0.0
17/01:00am 20.6 19.3 13.6 64 4.0 NE 13 28 7 15 - - 0.0
17/12:30am 20.4 20.4 15.2 72 3.1 NE 9 13 5 7 - - 0.0
17/12:00am 20.5 20.1 15.3 72 3.1 ENE 11 17 6 9 - - 0.0
 
Date/Time
EDT
Temp
°C
App
Temp
°C
Dew
Point
°C
Rel
Hum
%
Delta-T
°C
Wind Press
QNH
hPa
Press
MSL
hPa
Rain since
9am
mm
Dir  Spd
km/h
Gust
km/h
Spd
kts
Gust
kts
16/11:30pm 20.6 20.3 15.4 72 3.1 NE 11 17 6 9 - - 0.0
16/11:00pm 20.6 21.0 15.4 72 3.1 NE 7 11 4 6 - - 0.0
16/10:30pm 20.9 21.5 15.9 73 3.0 NE 7 11 4 6 - - 0.0
16/10:00pm 20.8 21.2 15.4 71 3.2 NE 7 11 4 6 - - 0.0
16/09:30pm 21.0 20.6 15.3 70 3.4 NE 11 17 6 9 - - 0.0
16/09:00pm 20.9 20.9 15.2 70 3.4 NE 9 15 5 8 - - 0.0
16/08:30pm 20.9 20.4 15.0 69 3.5 ENE 11 19 6 10 - - 0.0
16/08:00pm 21.1 19.9 14.0 64 4.1 ENE 13 19 7 10 - - 0.0
16/07:30pm 21.3 19.2 13.5 61 4.5 E 17 20 9 11 - - 0.0
16/07:00pm 21.3 18.7 13.2 60 4.6 E 19 22 10 12 - - 0.0
16/06:30pm 21.5 18.7 13.2 59 4.8 ESE 20 24 11 13 - - 0.0
16/06:00pm 21.4 17.8 12.0 55 5.3 ESE 22 24 12 13 - - 0.0
16/05:30pm 21.5 17.9 11.8 54 5.4 ESE 22 26 12 14 - - 0.0
16/05:00pm 21.7 18.7 12.0 54 5.5 ESE 19 20 10 11 - - 0.0

Other formats

Comma delimited format used in spreadsheet applications
http://www.bom.gov.au/fwo/IDN60801/IDN60801.94774.axf

JavaScript Object Notation format (JSON) in row-major order
http://www.bom.gov.au/fwo/IDN60801/IDN60801.94774.json

Data quality

Most of these data are generated automatically and are frequently updated. Quality checks on data are not normally performed. It is possible for incorrect values to appear. Refer to information at About Latest Weather Observations and please check the disclaimer before using these data.